Log in

Login to your account

Username *
Password *
Remember Me

Please enter the email address associated with your User account. Your username will be emailed to the email address on file.

Nous contacter

 Téléphone : +33 (0)4 79 54 41 81

NOTRE LIGNE TELEPHONIQUE EST HORS SERVICE. POUR JOINDRE LE SECRETARIAT MERCI DE COMPOSER LE 07 68 81 20 63.

Coordonnées détaillées et accès : cliquez ici

facebook 770688 960 720  logo instagram large

[source: ADDS]
METAR / TAF
LFLB 011430Z AUTO 20012KT 170V230 9999 -RA SCT007 BKN016 BKN022 12/11 Q1022 NOSIG =
TAF LFLB 011400Z 0115/0215 19008KT 9999 FEW009 BKN030 TEMPO 0115/0123 6000 -RA PROB30 TEMPO 0123/0206 1500 BCFG BECMG 0208/0210 34005KT

SR / SS: 05:34 / 17:17 UTC (Lever/Coucher du soleil le 2022-10-01)
JSN Boot template designed by JoomlaShine.com